sensor_id;sensor_type;location;lat;lon;timestamp;pressure;altitude;pressure_sealevel;temperature;humidity
56084;BME280;41958;52.416;13.428;2022-08-21T00:00:19;100989.47;;;17.62;100.00
56084;BME280;41958;52.416;13.428;2022-08-21T00:03:05;100988.25;;;17.60;100.00
56084;BME280;41958;52.416;13.428;2022-08-21T00:05:33;100984.59;;;17.59;100.00
56084;BME280;41958;52.416;13.428;2022-08-21T00:08:00;100993.06;;;17.59;100.00
56084;BME280;41958;52.416;13.428;2022-08-21T00:10:26;100979.72;;;17.56;100.00
56084;BME280;41958;52.416;13.428;2022-08-21T00:12:51;100977.31;;;17.55;100.00
56084;BME280;41958;52.416;13.428;2022-08-21T00:15:20;100980.94;;;17.55;100.00
56084;BME280;41958;52.416;13.428;2022-08-21T00:17:47;100974.88;;;17.53;100.00
56084;BME280;41958;52.416;13.428;2022-08-21T00:20:15;100974.06;;;17.56;100.00
56084;BME280;41958;52.416;13.428;2022-08-21T00:22:41;100977.72;;;17.57;100.00
56084;BME280;41958;52.416;13.428;2022-08-21T00:25:08;100980.94;;;17.55;100.00
56084;BME280;41958;52.416;13.428;2022-08-21T00:27:33;100972.00;;;17.49;100.00
56084;BME280;41958;52.416;13.428;2022-08-21T00:29:59;100978.84;;;17.48;100.00
56084;BME280;41958;52.416;13.428;2022-08-21T00:32:25;100978.44;;;17.46;100.00
56084;BME280;41958;52.416;13.428;2022-08-21T00:34:52;100977.66;;;17.46;100.00
56084;BME280;41958;52.416;13.428;2022-08-21T00:37:18;100976.41;;;17.43;100.00
56084;BME280;41958;52.416;13.428;2022-08-21T00:39:44;100980.84;;;17.44;100.00
56084;BME280;41958;52.416;13.428;2022-08-21T00:42:10;100986.88;;;17.39;100.00
56084;BME280;41958;52.416;13.428;2022-08-21T00:44:39;100975.94;;;17.34;100.00
56084;BME280;41958;52.416;13.428;2022-08-21T00:47:04;100972.72;;;17.35;100.00
56084;BME280;41958;52.416;13.428;2022-08-21T00:49:30;100977.53;;;17.31;100.00
56084;BME280;41958;52.416;13.428;2022-08-21T00:51:59;100982.75;;;17.29;100.00
56084;BME280;41958;52.416;13.428;2022-08-21T00:54:27;100980.69;;;17.26;100.00
56084;BME280;41958;52.416;13.428;2022-08-21T00:56:57;100983.50;;;17.23;100.00
56084;BME280;41958;52.416;13.428;2022-08-21T00:59:26;100978.22;;;17.17;100.00
56084;BME280;41958;52.416;13.428;2022-08-21T01:01:52;100980.25;;;17.21;100.00
56084;BME280;41958;52.416;13.428;2022-08-21T01:04:18;100975.00;;;17.19;100.00
56084;BME280;41958;52.416;13.428;2022-08-21T01:06:43;100985.56;;;17.26;100.00
56084;BME280;41958;52.416;13.428;2022-08-21T01:09:08;100979.03;;;17.18;100.00
56084;BME280;41958;52.416;13.428;2022-08-21T01:11:34;100988.72;;;17.21;100.00
56084;BME280;41958;52.416;13.428;2022-08-21T01:13:59;100986.75;;;17.25;100.00
56084;BME280;41958;52.416;13.428;2022-08-21T01:16:26;100982.72;;;17.26;100.00
56084;BME280;41958;52.416;13.428;2022-08-21T01:18:51;100983.97;;;17.32;100.00
56084;BME280;41958;52.416;13.428;2022-08-21T01:21:19;100982.69;;;17.22;100.00
56084;BME280;41958;52.416;13.428;2022-08-21T01:23:48;100995.19;;;17.21;100.00
56084;BME280;41958;52.416;13.428;2022-08-21T01:26:17;100994.34;;;17.17;100.00
56084;BME280;41958;52.416;13.428;2022-08-21T01:28:47;100981.78;;;17.11;100.00
56084;BME280;41958;52.416;13.428;2022-08-21T01:31:15;100985.34;;;17.04;100.00
56084;BME280;41958;52.416;13.428;2022-08-21T01:33:42;100985.34;;;17.04;100.00
56084;BME280;41958;52.416;13.428;2022-08-21T01:36:07;100988.94;;;17.01;100.00
56084;BME280;41958;52.416;13.428;2022-08-21T01:38:33;100991.00;;;17.04;100.00
56084;BME280;41958;52.416;13.428;2022-08-21T01:40:58;100984.91;;;17.02;100.00
56084;BME280;41958;52.416;13.428;2022-08-21T01:43:24;100989.81;;;17.05;100.00
56084;BME280;41958;52.416;13.428;2022-08-21T01:45:49;100981.69;;;17.03;100.00
56084;BME280;41958;52.416;13.428;2022-08-21T01:48:15;100991.75;;;17.01;100.00
56084;BME280;41958;52.416;13.428;2022-08-21T01:50:40;100983.28;;;16.97;100.00
56084;BME280;41958;52.416;13.428;2022-08-21T01:53:05;100979.59;;;16.93;100.00
56084;BME280;41958;52.416;13.428;2022-08-21T01:55:31;100992.88;;;16.89;100.00
56084;BME280;41958;52.416;13.428;2022-08-21T01:57:57;100990.97;;;17.00;100.00
56084;BME280;41958;52.416;13.428;2022-08-21T02:00:23;100991.84;;;17.08;100.00
56084;BME280;41958;52.416;13.428;2022-08-21T02:02:49;100989.72;;;16.98;100.00
56084;BME280;41958;52.416;13.428;2022-08-21T02:05:15;100995.38;;;16.98;100.00
56084;BME280;41958;52.416;13.428;2022-08-21T02:07:43;100994.53;;;16.94;100.00
56084;BME280;41958;52.416;13.428;2022-08-21T02:10:10;100985.19;;;16.90;100.00
56084;BME280;41958;52.416;13.428;2022-08-21T02:12:36;100991.69;;;16.94;100.00
56084;BME280;41958;52.416;13.428;2022-08-21T02:15:03;100985.56;;;16.88;100.00
56084;BME280;41958;52.416;13.428;2022-08-21T02:17:46;100989.25;;;16.92;100.00
56084;BME280;41958;52.416;13.428;2022-08-21T02:20:20;100978.78;;;16.93;100.00
56084;BME280;41958;52.416;13.428;2022-08-21T02:22:45;100980.00;;;16.92;100.00
56084;BME280;41958;52.416;13.428;2022-08-21T02:25:11;100982.09;;;16.98;100.00
56084;BME280;41958;52.416;13.428;2022-08-21T02:27:39;100977.44;;;16.83;100.00
56084;BME280;41958;52.416;13.428;2022-08-21T02:30:05;100970.06;;;16.71;100.00
56084;BME280;41958;52.416;13.428;2022-08-21T02:32:31;100974.00;;;16.63;100.00
56084;BME280;41958;52.416;13.428;2022-08-21T02:34:56;100980.84;;;16.62;100.00
56084;BME280;41958;52.416;13.428;2022-08-21T02:37:22;100986.97;;;16.67;100.00
56084;BME280;41958;52.416;13.428;2022-08-21T02:39:48;100979.41;;;16.79;100.00
56084;BME280;41958;52.416;13.428;2022-08-21T02:42:14;100983.31;;;16.67;100.00
56084;BME280;41958;52.416;13.428;2022-08-21T02:44:39;100982.97;;;16.72;100.00
56084;BME280;41958;52.416;13.428;2022-08-21T02:47:05;100986.13;;;16.67;100.00
56084;BME280;41958;52.416;13.428;2022-08-21T02:49:30;100976.06;;;16.66;100.00
56084;BME280;41958;52.416;13.428;2022-08-21T02:51:55;100978.78;;;16.59;100.00
56084;BME280;41958;52.416;13.428;2022-08-21T02:54:20;100974.84;;;16.67;100.00
56084;BME280;41958;52.416;13.428;2022-08-21T02:56:46;100984.13;;;16.67;100.00
56084;BME280;41958;52.416;13.428;2022-08-21T02:59:11;100982.47;;;16.63;100.00
56084;BME280;41958;52.416;13.428;2022-08-21T03:01:36;100989.59;;;16.53;100.00
56084;BME280;41958;52.416;13.428;2022-08-21T03:04:02;100980.63;;;16.44;100.00
56084;BME280;41958;52.416;13.428;2022-08-21T03:06:27;100992.59;;;16.33;100.00
56084;BME280;41958;52.416;13.428;2022-08-21T03:08:54;100982.44;;;16.25;100.00
56084;BME280;41958;52.416;13.428;2022-08-21T03:11:19;100986.84;;;16.26;100.00
56084;BME280;41958;52.416;13.428;2022-08-21T03:13:45;100980.84;;;16.28;100.00
56084;BME280;41958;52.416;13.428;2022-08-21T03:16:11;100983.28;;;16.29;100.00
56084;BME280;41958;52.416;13.428;2022-08-21T03:18:37;100975.22;;;16.28;100.00
56084;BME280;41958;52.416;13.428;2022-08-21T03:21:03;100975.94;;;16.21;100.00
56084;BME280;41958;52.416;13.428;2022-08-21T03:23:28;100977.91;;;16.17;100.00
56084;BME280;41958;52.416;13.428;2022-08-21T03:25:55;100978.25;;;16.15;100.00
56084;BME280;41958;52.416;13.428;2022-08-21T03:28:21;100975.06;;;16.17;100.00
56084;BME280;41958;52.416;13.428;2022-08-21T03:30:49;100984.66;;;16.12;100.00
56084;BME280;41958;52.416;13.428;2022-08-21T03:33:16;100972.84;;;16.03;100.00
56084;BME280;41958;52.416;13.428;2022-08-21T03:35:49;100973.22;;;15.98;100.00
56084;BME280;41958;52.416;13.428;2022-08-21T03:38:17;100978.84;;;15.98;100.00
56084;BME280;41958;52.416;13.428;2022-08-21T03:40:44;100981.16;;;15.92;100.00
56084;BME280;41958;52.416;13.428;2022-08-21T03:43:10;100979.50;;;15.88;100.00
56084;BME280;41958;52.416;13.428;2022-08-21T03:45:35;100981.47;;;15.83;100.00
56084;BME280;41958;52.416;13.428;2022-08-21T03:48:03;100980.22;;;15.81;100.00
56084;BME280;41958;52.416;13.428;2022-08-21T03:50:32;100979.72;;;15.79;100.00
56084;BME280;41958;52.416;13.428;2022-08-21T03:52:58;100984.66;;;15.82;100.00
56084;BME280;41958;52.416;13.428;2022-08-21T03:55:24;100979.72;;;15.79;100.00
56084;BME280;41958;52.416;13.428;2022-08-21T03:57:49;100982.56;;;15.79;100.00
56084;BME280;41958;52.416;13.428;2022-08-21T04:00:16;100983.31;;;15.76;100.00
56084;BME280;41958;52.416;13.428;2022-08-21T04:02:42;100984.88;;;15.73;100.00
56084;BME280;41958;52.416;13.428;2022-08-21T04:05:09;101001.41;;;15.75;100.00
56084;BME280;41958;52.416;13.428;2022-08-21T04:07:35;100991.28;;;15.70;100.00
56084;BME280;41958;52.416;13.428;2022-08-21T04:10:01;100995.25;;;15.65;100.00
56084;BME280;41958;52.416;13.428;2022-08-21T04:12:26;101000.81;;;15.62;100.00
56084;BME280;41958;52.416;13.428;2022-08-21T04:14:51;100999.16;;;15.57;100.00
56084;BME280;41958;52.416;13.428;2022-08-21T04:17:17;101007.53;;;15.54;100.00
56084;BME280;41958;52.416;13.428;2022-08-21T04:19:43;101007.53;;;15.54;100.00
56084;BME280;41958;52.416;13.428;2022-08-21T04:22:08;100999.03;;;15.50;100.00
56084;BME280;41958;52.416;13.428;2022-08-21T04:24:34;101002.22;;;15.48;100.00
56084;BME280;41958;52.416;13.428;2022-08-21T04:26:59;101004.28;;;15.51;100.00
56084;BME280;41958;52.416;13.428;2022-08-21T04:29:25;101003.47;;;15.51;100.00
56084;BME280;41958;52.416;13.428;2022-08-21T04:31:50;101003.47;;;15.51;100.00
56084;BME280;41958;52.416;13.428;2022-08-21T04:34:17;100999.50;;;15.56;100.00
56084;BME280;41958;52.416;13.428;2022-08-21T04:36:42;100999.50;;;15.56;100.00
56084;BME280;41958;52.416;13.428;2022-08-21T04:39:07;100995.50;;;15.57;100.00
56084;BME280;41958;52.416;13.428;2022-08-21T04:41:32;101002.78;;;15.58;100.00
56084;BME280;41958;52.416;13.428;2022-08-21T04:43:58;100998.88;;;15.66;100.00
56084;BME280;41958;52.416;13.428;2022-08-21T04:46:24;101006.13;;;15.67;100.00
56084;BME280;41958;52.416;13.428;2022-08-21T04:48:49;100999.63;;;15.63;100.00
56084;BME280;41958;52.416;13.428;2022-08-21T04:51:25;101004.56;;;15.70;100.00
56084;BME280;41958;52.416;13.428;2022-08-21T04:54:17;101012.19;;;15.69;100.00
56084;BME280;41958;52.416;13.428;2022-08-21T04:56:51;101000.19;;;15.72;100.00
56084;BME280;41958;52.416;13.428;2022-08-21T04:59:21;101010.31;;;15.77;100.00
56084;BME280;41958;52.416;13.428;2022-08-21T05:01:47;101018.38;;;15.78;100.00
56084;BME280;41958;52.416;13.428;2022-08-21T05:04:17;101013.31;;;15.88;100.00
56084;BME280;41958;52.416;13.428;2022-08-21T05:06:45;101007.47;;;16.00;100.00
56084;BME280;41958;52.416;13.428;2022-08-21T05:09:15;101010.97;;;15.93;100.00
56084;BME280;41958;52.416;13.428;2022-08-21T05:11:41;101017.00;;;15.92;100.00
56084;BME280;41958;52.416;13.428;2022-08-21T05:14:08;101007.38;;;15.93;100.00
56084;BME280;41958;52.416;13.428;2022-08-21T05:16:33;101016.25;;;15.95;100.00
56084;BME280;41958;52.416;13.428;2022-08-21T05:18:58;101023.50;;;15.96;100.00
56084;BME280;41958;52.416;13.428;2022-08-21T05:21:24;101015.84;;;15.96;100.00
56084;BME280;41958;52.416;13.428;2022-08-21T05:23:49;101020.31;;;15.97;100.00
56084;BME280;41958;52.416;13.428;2022-08-21T05:26:14;101022.34;;;16.00;100.00
56084;BME280;41958;52.416;13.428;2022-08-21T05:28:39;101022.03;;;16.06;100.00
56084;BME280;41958;52.416;13.428;2022-08-21T05:31:05;101016.44;;;16.09;100.00
56084;BME280;41958;52.416;13.428;2022-08-21T05:33:30;101008.25;;;16.00;100.00
56084;BME280;41958;52.416;13.428;2022-08-21T05:35:56;101029.41;;;16.14;100.00
56084;BME280;41958;52.416;13.428;2022-08-21T05:38:23;101028.22;;;16.15;100.00
56084;BME280;41958;52.416;13.428;2022-08-21T05:40:49;101028.25;;;16.18;100.00
56084;BME280;41958;52.416;13.428;2022-08-21T05:43:15;101031.94;;;16.23;100.00
56084;BME280;41958;52.416;13.428;2022-08-21T05:45:40;101037.63;;;16.26;100.00
56084;BME280;41958;52.416;13.428;2022-08-21T05:48:13;101040.13;;;16.31;100.00
56084;BME280;41958;52.416;13.428;2022-08-21T05:50:38;101039.41;;;16.38;100.00
56084;BME280;41958;52.416;13.428;2022-08-21T05:53:05;101035.78;;;16.38;100.00
56084;BME280;41958;52.416;13.428;2022-08-21T05:55:30;101039.06;;;16.43;100.00
56084;BME280;41958;52.416;13.428;2022-08-21T05:57:56;101038.75;;;16.48;100.00
56084;BME280;41958;52.416;13.428;2022-08-21T06:00:21;101038.41;;;16.54;100.00
56084;BME280;41958;52.416;13.428;2022-08-21T06:02:48;101038.44;;;16.57;100.00
56084;BME280;41958;52.416;13.428;2022-08-21T06:05:13;101046.13;;;16.60;100.00
56084;BME280;41958;52.416;13.428;2022-08-21T06:07:38;101041.34;;;16.64;100.00
56084;BME280;41958;52.416;13.428;2022-08-21T06:10:04;101037.38;;;16.69;100.00
56084;BME280;41958;52.416;13.428;2022-08-21T06:12:29;101032.13;;;16.71;100.00
56084;BME280;41958;52.416;13.428;2022-08-21T06:14:54;101033.00;;;16.75;100.00
56084;BME280;41958;52.416;13.428;2022-08-21T06:17:20;101035.88;;;16.79;100.00
56084;BME280;41958;52.416;13.428;2022-08-21T06:19:49;101021.69;;;16.75;100.00
56084;BME280;41958;52.416;13.428;2022-08-21T06:22:15;101038.03;;;16.89;100.00
56084;BME280;41958;52.416;13.428;2022-08-21T06:24:40;101046.19;;;16.98;100.00
56084;BME280;41958;52.416;13.428;2022-08-21T06:27:06;101041.78;;;17.00;100.00
56084;BME280;41958;52.416;13.428;2022-08-21T06:29:32;101047.88;;;17.02;100.00
56084;BME280;41958;52.416;13.428;2022-08-21T06:31:57;101041.94;;;17.15;100.00
56084;BME280;41958;52.416;13.428;2022-08-21T06:34:22;101044.78;;;17.18;100.00
56084;BME280;41958;52.416;13.428;2022-08-21T06:36:48;101042.03;;;17.26;100.00
56084;BME280;41958;52.416;13.428;2022-08-21T06:39:13;101047.78;;;17.36;100.00
56084;BME280;41958;52.416;13.428;2022-08-21T06:41:38;101042.53;;;17.35;100.00
56084;BME280;41958;52.416;13.428;2022-08-21T06:44:04;101044.69;;;17.49;100.00
56084;BME280;41958;52.416;13.428;2022-08-21T06:46:30;101039.47;;;17.55;100.00
56084;BME280;41958;52.416;13.428;2022-08-21T06:48:56;101032.19;;;17.53;100.00
56084;BME280;41958;52.416;13.428;2022-08-21T06:51:22;101053.72;;;17.69;100.00
56084;BME280;41958;52.416;13.428;2022-08-21T06:53:48;101047.63;;;17.67;100.00
56084;BME280;41958;52.416;13.428;2022-08-21T06:56:13;101044.91;;;17.78;100.00
56084;BME280;41958;52.416;13.428;2022-08-21T06:58:39;101044.22;;;17.92;100.00
56084;BME280;41958;52.416;13.428;2022-08-21T07:01:04;101044.59;;;17.90;100.00
56084;BME280;41958;52.416;13.428;2022-08-21T07:03:32;101037.72;;;17.91;100.00
56084;BME280;41958;52.416;13.428;2022-08-21T07:05:58;101045.88;;;18.00;100.00
56084;BME280;41958;52.416;13.428;2022-08-21T07:08:25;101033.38;;;18.01;100.00
56084;BME280;41958;52.416;13.428;2022-08-21T07:10:52;101036.69;;;18.14;100.00
56084;BME280;41958;52.416;13.428;2022-08-21T07:13:18;101041.19;;;18.22;100.00
56084;BME280;41958;52.416;13.428;2022-08-21T07:15:43;101040.38;;;18.25;100.00
56084;BME280;41958;52.416;13.428;2022-08-21T07:18:10;101034.00;;;18.39;100.00
56084;BME280;41958;52.416;13.428;2022-08-21T07:20:35;101038.91;;;18.49;100.00
56084;BME280;41958;52.416;13.428;2022-08-21T07:23:05;101041.78;;;18.60;100.00
56084;BME280;41958;52.416;13.428;2022-08-21T07:25:31;101039.78;;;18.68;100.00
56084;BME280;41958;52.416;13.428;2022-08-21T07:27:56;101036.16;;;18.71;100.00
56084;BME280;41958;52.416;13.428;2022-08-21T07:30:22;101039.00;;;18.85;100.00
56084;BME280;41958;52.416;13.428;2022-08-21T07:32:48;101042.34;;;19.06;97.25
56084;BME280;41958;52.416;13.428;2022-08-21T07:35:19;101031.00;;;18.91;96.73
56084;BME280;41958;52.416;13.428;2022-08-21T07:37:48;101039.13;;;19.14;96.61
56084;BME280;41958;52.416;13.428;2022-08-21T07:40:14;101031.44;;;19.44;96.41
56084;BME280;41958;52.416;13.428;2022-08-21T07:42:42;101033.09;;;19.55;87.18
56084;BME280;41958;52.416;13.428;2022-08-21T07:45:08;101038.38;;;19.64;81.58
56084;BME280;41958;52.416;13.428;2022-08-21T07:47:34;101036.31;;;19.61;80.99
56084;BME280;41958;52.416;13.428;2022-08-21T07:49:59;101042.00;;;19.68;81.02
56084;BME280;41958;52.416;13.428;2022-08-21T07:52:24;101034.69;;;19.64;81.49
56084;BME280;41958;52.416;13.428;2022-08-21T07:54:49;101035.53;;;19.82;79.89
56084;BME280;41958;52.416;13.428;2022-08-21T07:57:15;101031.06;;;19.92;81.67
56084;BME280;41958;52.416;13.428;2022-08-21T07:59:40;101026.16;;;20.03;78.94
56084;BME280;41958;52.416;13.428;2022-08-21T08:02:06;101024.16;;;20.04;77.80
56084;BME280;41958;52.416;13.428;2022-08-21T08:04:32;101019.31;;;19.90;75.15
56084;BME280;41958;52.416;13.428;2022-08-21T08:06:58;101030.25;;;20.02;76.22
56084;BME280;41958;52.416;13.428;2022-08-21T08:09:23;101026.16;;;20.11;75.93
56084;BME280;41958;52.416;13.428;2022-08-21T08:11:48;101029.75;;;20.29;74.58
56084;BME280;41958;52.416;13.428;2022-08-21T08:14:13;101019.22;;;20.26;75.21
56084;BME280;41958;52.416;13.428;2022-08-21T08:16:40;101019.09;;;20.62;74.34
56084;BME280;41958;52.416;13.428;2022-08-21T08:19:05;101017.38;;;20.86;71.40
56084;BME280;41958;52.416;13.428;2022-08-21T08:21:30;101018.88;;;21.05;72.43
56084;BME280;41958;52.416;13.428;2022-08-21T08:23:57;101024.72;;;21.40;70.03
56084;BME280;41958;52.416;13.428;2022-08-21T08:26:22;101030.03;;;21.34;66.78
56084;BME280;41958;52.416;13.428;2022-08-21T08:28:48;101039.13;;;21.11;69.21
56084;BME280;41958;52.416;13.428;2022-08-21T08:31:13;101034.63;;;21.17;66.64
56084;BME280;41958;52.416;13.428;2022-08-21T08:33:39;101041.56;;;21.13;64.76
56084;BME280;41958;52.416;13.428;2022-08-21T08:36:05;101038.25;;;21.21;64.76
56084;BME280;41958;52.416;13.428;2022-08-21T08:38:30;101039.91;;;21.15;62.85
56084;BME280;41958;52.416;13.428;2022-08-21T08:41:12;101033.53;;;21.00;61.67
56084;BME280;41958;52.416;13.428;2022-08-21T08:43:39;101037.16;;;21.01;62.55
56084;BME280;41958;52.416;13.428;2022-08-21T08:46:15;101035.16;;;21.01;61.68
56084;BME280;41958;52.416;13.428;2022-08-21T08:48:53;101027.84;;;21.00;62.22
56084;BME280;41958;52.416;13.428;2022-08-21T08:51:24;101023.22;;;21.25;61.15
56084;BME280;41958;52.416;13.428;2022-08-21T08:53:54;101027.22;;;21.31;58.83
56084;BME280;41958;52.416;13.428;2022-08-21T08:56:25;101022.50;;;21.10;60.81
56084;BME280;41958;52.416;13.428;2022-08-21T08:58:52;101016.13;;;20.91;60.04
56084;BME280;41958;52.416;13.428;2022-08-21T09:01:20;101013.66;;;20.97;61.03
56084;BME280;41958;52.416;13.428;2022-08-21T09:03:47;101012.44;;;20.98;61.71
56084;BME280;41958;52.416;13.428;2022-08-21T09:09:24;101014.44;;;21.01;58.04
56084;BME280;41958;52.416;13.428;2022-08-21T09:15:15;101016.31;;;21.22;58.85
56084;BME280;41958;52.416;13.428;2022-08-21T09:18:02;101011.56;;;21.04;60.12
56084;BME280;41958;52.416;13.428;2022-08-21T09:20:48;101017.53;;;21.25;58.90
56084;BME280;41958;52.416;13.428;2022-08-21T09:28:34;101020.13;;;21.01;58.86
56084;BME280;41958;52.416;13.428;2022-08-21T09:31:05;101020.81;;;21.16;61.66
56084;BME280;41958;52.416;13.428;2022-08-21T09:33:30;101021.44;;;21.45;58.06
56084;BME280;41958;52.416;13.428;2022-08-21T09:35:56;101016.59;;;21.42;57.96
56084;BME280;41958;52.416;13.428;2022-08-21T09:38:33;101016.81;;;21.66;56.45
56084;BME280;41958;52.416;13.428;2022-08-21T09:41:05;101019.28;;;21.64;57.03
56084;BME280;41958;52.416;13.428;2022-08-21T09:43:31;101019.72;;;21.59;56.26
56084;BME280;41958;52.416;13.428;2022-08-21T09:46:19;101017.03;;;21.37;57.04
56084;BME280;41958;52.416;13.428;2022-08-21T09:48:47;101010.38;;;21.58;56.17
56084;BME280;41958;52.416;13.428;2022-08-21T09:51:34;101004.28;;;21.60;56.46
56084;BME280;41958;52.416;13.428;2022-08-21T09:54:14;101009.28;;;21.86;56.12
56084;BME280;41958;52.416;13.428;2022-08-21T09:56:58;101016.84;;;22.04;56.49
56084;BME280;41958;52.416;13.428;2022-08-21T09:59:44;101012.75;;;22.09;55.43
56084;BME280;41958;52.416;13.428;2022-08-21T10:02:33;101013.84;;;22.18;55.35
56084;BME280;41958;52.416;13.428;2022-08-21T10:05:27;101007.19;;;22.29;55.20
56084;BME280;41958;52.416;13.428;2022-08-21T10:07:53;101012.78;;;22.39;53.01
56084;BME280;41958;52.416;13.428;2022-08-21T10:10:25;101010.00;;;22.32;53.12
56084;BME280;41958;52.416;13.428;2022-08-21T10:13:08;101009.34;;;22.21;53.71
56084;BME280;41958;52.416;13.428;2022-08-21T10:15:53;101018.47;;;22.43;52.14
56084;BME280;41958;52.416;13.428;2022-08-21T10:18:39;101019.31;;;22.40;51.17
56084;BME280;41958;52.416;13.428;2022-08-21T10:32:27;101019.25;;;23.05;50.96
56084;BME280;41958;52.416;13.428;2022-08-21T10:35:10;101015.69;;;22.98;49.52
56084;BME280;41958;52.416;13.428;2022-08-21T10:37:48;101018.78;;;22.80;47.45
56084;BME280;41958;52.416;13.428;2022-08-21T10:40:27;101014.28;;;22.82;46.80
56084;BME280;41958;52.416;13.428;2022-08-21T10:45:42;101016.13;;;22.65;47.19
56084;BME280;41958;52.416;13.428;2022-08-21T10:48:18;101013.28;;;22.65;48.94
56084;BME280;41958;52.416;13.428;2022-08-21T10:50:57;101018.91;;;22.72;48.95
56084;BME280;41958;52.416;13.428;2022-08-21T10:56:16;101017.31;;;22.68;46.57
56084;BME280;41958;52.416;13.428;2022-08-21T10:58:51;101012.59;;;22.88;46.06
56084;BME280;41958;52.416;13.428;2022-08-21T11:04:28;101023.25;;;23.12;44.64
56084;BME280;41958;52.416;13.428;2022-08-21T11:07:08;101019.19;;;23.09;45.43
56084;BME280;41958;52.416;13.428;2022-08-21T11:09:38;101026.53;;;23.10;44.35
56084;BME280;41958;52.416;13.428;2022-08-21T11:12:23;101026.59;;;23.03;44.56
56084;BME280;41958;52.416;13.428;2022-08-21T11:17:41;101014.09;;;22.97;46.88
56084;BME280;41958;52.416;13.428;2022-08-21T11:20:33;101017.56;;;23.08;44.44
56084;BME280;41958;52.416;13.428;2022-08-21T11:23:07;101008.22;;;23.07;43.58
56084;BME280;41958;52.416;13.428;2022-08-21T11:25:40;101015.59;;;23.05;42.46
56084;BME280;41958;52.416;13.428;2022-08-21T11:28:10;101012.63;;;23.12;42.53
56084;BME280;41958;52.416;13.428;2022-08-21T11:30:50;101015.25;;;23.54;41.04
56084;BME280;41958;52.416;13.428;2022-08-21T11:36:12;101010.53;;;23.44;42.14
56084;BME280;41958;52.416;13.428;2022-08-21T11:38:46;100998.19;;;23.50;40.35
56084;BME280;41958;52.416;13.428;2022-08-21T11:41:26;101003.16;;;23.46;39.65
56084;BME280;41958;52.416;13.428;2022-08-21T11:44:02;101002.72;;;23.71;39.53
56084;BME280;41958;52.416;13.428;2022-08-21T11:47:03;101007.50;;;23.54;41.16
56084;BME280;41958;52.416;13.428;2022-08-21T11:49:56;101001.16;;;23.67;40.90
56084;BME280;41958;52.416;13.428;2022-08-21T11:52:36;101008.06;;;23.69;39.76
56084;BME280;41958;52.416;13.428;2022-08-21T11:55:17;101003.28;;;23.63;41.18
56084;BME280;41958;52.416;13.428;2022-08-21T11:57:54;100997.88;;;23.68;41.58
56084;BME280;41958;52.416;13.428;2022-08-21T12:00:36;101000.16;;;23.53;42.55
56084;BME280;41958;52.416;13.428;2022-08-21T12:03:14;100998.00;;;23.37;44.86
56084;BME280;41958;52.416;13.428;2022-08-21T12:05:42;101004.94;;;23.36;42.25
56084;BME280;41958;52.416;13.428;2022-08-21T12:10:40;100996.88;;;23.79;39.98
56084;BME280;41958;52.416;13.428;2022-08-21T12:13:09;100994.03;;;23.79;40.74
56084;BME280;41958;52.416;13.428;2022-08-21T12:15:36;100995.44;;;23.67;41.51
56084;BME280;41958;52.416;13.428;2022-08-21T12:18:31;100991.47;;;23.84;41.50
56084;BME280;41958;52.416;13.428;2022-08-21T12:21:19;100987.66;;;23.95;41.01
56084;BME280;41958;52.416;13.428;2022-08-21T12:26:52;100989.00;;;23.63;40.30
56084;BME280;41958;52.416;13.428;2022-08-21T12:29:36;100983.88;;;23.54;43.21
56084;BME280;41958;52.416;13.428;2022-08-21T12:32:03;100988.72;;;23.33;40.58
56084;BME280;41958;52.416;13.428;2022-08-21T12:34:40;100998.13;;;23.30;42.22
56084;BME280;41958;52.416;13.428;2022-08-21T12:37:24;100994.81;;;23.32;42.62
56084;BME280;41958;52.416;13.428;2022-08-21T12:39:54;100994.28;;;23.40;39.76
56084;BME280;41958;52.416;13.428;2022-08-21T12:42:23;100980.06;;;23.37;38.73
56084;BME280;41958;52.416;13.428;2022-08-21T12:44:53;100980.94;;;23.34;41.21
56084;BME280;41958;52.416;13.428;2022-08-21T12:47:31;100981.81;;;23.31;40.35
56084;BME280;41958;52.416;13.428;2022-08-21T12:50:21;100979.06;;;23.23;40.63
56084;BME280;41958;52.416;13.428;2022-08-21T12:53:09;100978.47;;;23.08;43.21
56084;BME280;41958;52.416;13.428;2022-08-21T12:55:41;100981.66;;;23.42;40.52
56084;BME280;41958;52.416;13.428;2022-08-21T12:58:17;100980.94;;;23.34;40.33
56084;BME280;41958;52.416;13.428;2022-08-21T13:00:49;100978.72;;;23.21;39.05
56084;BME280;41958;52.416;13.428;2022-08-21T13:03:15;100982.09;;;23.40;38.00
56084;BME280;41958;52.416;13.428;2022-08-21T13:05:41;100971.41;;;23.20;38.26
56084;BME280;41958;52.416;13.428;2022-08-21T13:08:09;100981.09;;;23.27;38.66
56084;BME280;41958;52.416;13.428;2022-08-21T13:10:36;100986.28;;;23.32;40.30
56084;BME280;41958;52.416;13.428;2022-08-21T13:13:16;100975.41;;;23.47;40.33
56084;BME280;41958;52.416;13.428;2022-08-21T13:15:43;100983.06;;;23.53;40.50
56084;BME280;41958;52.416;13.428;2022-08-21T13:18:23;100983.06;;;23.30;41.17
56084;BME280;41958;52.416;13.428;2022-08-21T13:20:49;100973.31;;;23.27;42.91
56084;BME280;41958;52.416;13.428;2022-08-21T13:23:24;100982.94;;;23.37;43.53
56084;BME280;41958;52.416;13.428;2022-08-21T13:25:49;100971.22;;;23.31;42.45